createdAt,value
2017-11-28T00:00:29.039Z,7.3
2017-11-28T00:01:09.564Z,7.35
2017-11-28T00:01:50.085Z,7.39
2017-11-28T00:02:30.615Z,7.31
2017-11-28T00:03:11.147Z,7.23
2017-11-28T00:03:51.686Z,7.2
2017-11-28T00:04:32.220Z,7.2
2017-11-28T00:05:12.750Z,7.27
2017-11-28T00:05:53.282Z,7.23
2017-11-28T00:06:33.813Z,7.23
2017-11-28T00:07:14.349Z,7.23
2017-11-28T00:07:54.881Z,7.23
2017-11-28T00:08:35.416Z,7.2
2017-11-28T00:09:15.950Z,7.15
2017-11-28T00:09:56.478Z,7.09
2017-11-28T00:10:37.011Z,7.17
2017-11-28T00:11:17.538Z,7.21
2017-11-28T00:11:58.060Z,7.23
2017-11-28T00:12:38.580Z,7.17
2017-11-28T00:13:19.112Z,7.13
2017-11-28T00:13:59.644Z,7.2
2017-11-28T00:14:40.172Z,7.17
2017-11-28T00:15:20.702Z,7.17
2017-11-28T00:16:01.218Z,7.17
2017-11-28T00:16:41.754Z,7.15
2017-11-28T00:17:22.282Z,7.05
2017-11-28T00:18:02.805Z,7.09
2017-11-28T00:18:43.315Z,7.03
2017-11-28T00:19:23.841Z,7.06
2017-11-28T00:20:04.371Z,6.98
2017-11-28T00:20:44.888Z,6.99
2017-11-28T00:21:25.421Z,6.98
2017-11-28T00:22:05.949Z,6.97
2017-11-28T00:22:46.476Z,6.98
2017-11-28T00:23:27.020Z,6.89
2017-11-28T00:24:07.520Z,6.95
2017-11-28T00:24:48.057Z,6.99
2017-11-28T00:25:28.596Z,6.95
2017-11-28T00:26:09.107Z,6.95
2017-11-28T00:26:49.625Z,6.94
2017-11-28T00:27:30.165Z,6.99
2017-11-28T00:28:10.687Z,6.91
2017-11-28T00:28:51.227Z,6.95
2017-11-28T00:29:31.750Z,6.92
2017-11-28T00:30:12.291Z,6.88
2017-11-28T00:30:52.804Z,6.81
2017-11-28T00:31:33.336Z,6.89
2017-11-28T00:32:13.890Z,6.76
2017-11-28T00:32:54.406Z,6.79
2017-11-28T00:33:34.940Z,6.76
2017-11-28T00:34:15.451Z,6.73
2017-11-28T00:34:55.964Z,6.81
2017-11-28T00:35:36.488Z,6.74
2017-11-28T00:36:17.010Z,6.79
2017-11-28T00:36:57.525Z,6.81
2017-11-28T00:37:38.055Z,6.88
2017-11-28T00:38:18.562Z,6.73
2017-11-28T00:38:59.103Z,6.77
2017-11-28T00:39:39.637Z,6.76
2017-11-28T00:40:20.188Z,6.8
2017-11-28T00:41:00.699Z,6.79
2017-11-28T00:41:41.226Z,6.76
2017-11-28T00:42:21.760Z,6.77
2017-11-28T00:43:02.291Z,6.71
2017-11-28T00:43:42.817Z,6.8
2017-11-28T00:44:23.337Z,6.71
2017-11-28T00:45:03.880Z,6.73
2017-11-28T00:45:44.405Z,6.79
2017-11-28T00:46:24.927Z,6.77
2017-11-28T00:47:05.457Z,6.69
2017-11-28T00:47:45.986Z,6.7
2017-11-28T00:48:26.523Z,6.76
2017-11-28T00:49:07.057Z,6.74
2017-11-28T00:49:47.597Z,6.74
2017-11-28T00:50:28.137Z,6.76
2017-11-28T00:51:08.640Z,6.71
2017-11-28T00:51:49.188Z,6.77
2017-11-28T00:52:29.696Z,6.71
2017-11-28T00:53:10.236Z,6.69
2017-11-28T00:53:50.751Z,6.67
2017-11-28T00:54:31.276Z,6.59
2017-11-28T00:55:11.810Z,6.62
2017-11-28T00:55:52.329Z,6.58
2017-11-28T00:56:32.848Z,6.59
2017-11-28T00:57:13.384Z,6.61
2017-11-28T00:57:53.916Z,6.62
2017-11-28T00:58:34.444Z,6.62
2017-11-28T00:59:14.979Z,6.59
2017-11-28T00:59:55.523Z,6.58
2017-11-28T01:00:36.028Z,6.59
2017-11-28T01:01:16.565Z,6.66
2017-11-28T01:01:57.097Z,6.59
2017-11-28T01:02:37.629Z,6.61
2017-11-28T01:03:18.160Z,6.61
2017-11-28T01:03:58.695Z,6.62
2017-11-28T01:04:39.221Z,6.61
2017-11-28T01:05:19.754Z,6.61
2017-11-28T01:06:00.271Z,6.59
2017-11-28T01:06:40.792Z,6.64
2017-11-28T01:07:21.324Z,6.61
2017-11-28T01:08:01.850Z,6.67
2017-11-28T01:08:42.379Z,6.69
2017-11-28T01:09:22.901Z,6.62
2017-11-28T01:10:03.443Z,6.56
2017-11-28T01:10:43.998Z,6.58
2017-11-28T01:11:24.532Z,6.59
2017-11-28T01:12:05.076Z,6.64
2017-11-28T01:12:45.593Z,6.62
2017-11-28T01:13:26.113Z,6.71
2017-11-28T01:14:06.625Z,6.69
2017-11-28T01:14:47.158Z,6.59
2017-11-28T01:15:27.724Z,6.69
2017-11-28T01:16:08.210Z,6.64
2017-11-28T01:16:48.738Z,6.67
2017-11-28T01:17:29.274Z,6.61
2017-11-28T01:18:09.818Z,6.64
2017-11-28T01:18:50.347Z,6.62
2017-11-28T01:19:30.870Z,6.64
2017-11-28T01:20:11.423Z,6.59
2017-11-28T01:20:51.930Z,6.59
2017-11-28T01:21:32.468Z,6.58
2017-11-28T01:22:12.990Z,6.62
2017-11-28T01:22:53.523Z,6.61
2017-11-28T01:23:34.074Z,6.59
2017-11-28T01:24:14.591Z,6.61
2017-11-28T01:24:55.130Z,6.59
2017-11-28T01:25:35.664Z,6.59
2017-11-28T01:26:16.190Z,6.58
2017-11-28T01:26:56.707Z,6.59
2017-11-28T01:27:37.249Z,6.51
2017-11-28T01:28:17.765Z,6.54
2017-11-28T01:28:58.289Z,6.48
2017-11-28T01:29:38.815Z,6.55
2017-11-28T01:30:19.373Z,6.46
2017-11-28T01:30:59.916Z,6.49
2017-11-28T01:31:40.433Z,6.48
2017-11-28T01:32:20.965Z,6.51
2017-11-28T01:33:01.495Z,6.4
2017-11-28T01:33:42.012Z,6.43
2017-11-28T01:34:22.552Z,6.36
2017-11-28T01:35:03.087Z,6.41
2017-11-28T01:35:43.613Z,6.4
2017-11-28T01:36:24.166Z,6.41
2017-11-28T01:37:04.698Z,6.43
2017-11-28T01:37:45.224Z,6.48
2017-11-28T01:38:25.753Z,6.43
2017-11-28T01:39:06.293Z,6.49
2017-11-28T01:39:46.817Z,6.4
2017-11-28T01:40:27.367Z,6.41
2017-11-28T01:41:07.888Z,6.43
2017-11-28T01:41:48.415Z,6.44
2017-11-28T01:42:28.946Z,6.44
2017-11-28T01:43:09.491Z,6.4
2017-11-28T01:43:49.995Z,6.4
2017-11-28T01:44:30.541Z,6.4
2017-11-28T01:45:11.057Z,6.36
2017-11-28T01:45:51.593Z,6.41
2017-11-28T01:46:32.124Z,6.43
2017-11-28T01:47:12.653Z,6.38
2017-11-28T01:47:53.179Z,6.4
2017-11-28T01:48:33.707Z,6.43
2017-11-28T01:49:14.245Z,6.38
2017-11-28T01:49:54.768Z,6.44
2017-11-28T01:50:35.294Z,6.38
2017-11-28T01:51:15.840Z,6.4
2017-11-28T01:51:56.371Z,6.44
2017-11-28T01:52:36.946Z,6.4
2017-11-28T01:53:17.438Z,6.4
2017-11-28T01:53:57.970Z,6.36
2017-11-28T01:54:38.504Z,6.4
2017-11-28T01:55:19.022Z,6.34
2017-11-28T01:55:59.552Z,6.31
2017-11-28T01:56:40.093Z,6.3
2017-11-28T01:57:20.628Z,6.34
2017-11-28T01:58:01.158Z,6.3
2017-11-28T01:58:41.687Z,6.3
2017-11-28T01:59:22.236Z,6.36
2017-11-28T02:00:02.783Z,6.36
2017-11-28T02:00:43.281Z,6.21
2017-11-28T02:01:23.819Z,6.36
2017-11-28T02:02:04.325Z,6.27
2017-11-28T02:02:44.849Z,6.27
2017-11-28T02:03:25.382Z,6.27
2017-11-28T02:04:05.944Z,6.25
2017-11-28T02:04:46.468Z,6.27
2017-11-28T02:05:26.983Z,6.27
2017-11-28T02:06:07.534Z,6.31
2017-11-28T02:06:48.083Z,6.27
2017-11-28T02:07:28.606Z,6.25
2017-11-28T02:08:09.138Z,6.25
2017-11-28T02:08:49.650Z,6.28
2017-11-28T02:09:30.179Z,6.28
2017-11-28T02:10:10.709Z,6.18
2017-11-28T02:10:51.243Z,6.31
2017-11-28T02:11:31.786Z,6.22
2017-11-28T02:12:12.316Z,6.21
2017-11-28T02:12:52.832Z,6.34
2017-11-28T02:13:33.357Z,6.3
2017-11-28T02:14:13.880Z,6.25
2017-11-28T02:14:54.390Z,6.3
2017-11-28T02:15:34.930Z,6.25
2017-11-28T02:16:15.467Z,6.22
2017-11-28T02:16:55.989Z,6.27
2017-11-28T02:17:36.499Z,6.21
2017-11-28T02:18:17.058Z,6.3
2017-11-28T02:18:57.566Z,6.3
2017-11-28T02:19:38.090Z,6.21
2017-11-28T02:20:18.612Z,6.28
2017-11-28T02:20:59.137Z,6.27
2017-11-28T02:21:39.652Z,6.22
2017-11-28T02:22:20.180Z,6.25
2017-11-28T02:23:00.711Z,6.22
2017-11-28T02:23:41.240Z,6.19
2017-11-28T02:24:21.772Z,6.21
2017-11-28T02:25:02.301Z,6.22
2017-11-28T02:25:42.838Z,6.21
2017-11-28T02:26:23.343Z,6.28
2017-11-28T02:27:03.879Z,6.22
2017-11-28T02:27:44.426Z,6.22
2017-11-28T02:28:24.952Z,6.18
2017-11-28T02:29:05.472Z,6.22
2017-11-28T02:29:45.992Z,6.27
2017-11-28T02:30:26.490Z,6.22
2017-11-28T02:31:07.013Z,6.18
2017-11-28T02:31:47.532Z,6.12
2017-11-28T02:32:28.118Z,6.25
2017-11-28T02:33:08.643Z,6.22
2017-11-28T02:33:49.153Z,6.15
2017-11-28T02:34:29.681Z,6.27
2017-11-28T02:35:10.196Z,6.12
2017-11-28T02:35:50.737Z,6.21
2017-11-28T02:36:31.260Z,6.3
2017-11-28T02:37:11.812Z,6.3
2017-11-28T02:37:52.320Z,6.18
2017-11-28T02:38:32.837Z,6.21
2017-11-28T02:39:13.374Z,6.28
2017-11-28T02:39:53.905Z,6.28
2017-11-28T02:40:34.432Z,6.3
2017-11-28T02:41:14.956Z,6.21
2017-11-28T02:41:55.486Z,6.28
2017-11-28T02:42:36.025Z,6.33
2017-11-28T02:43:16.540Z,6.31
2017-11-28T02:43:57.059Z,6.25
2017-11-28T02:44:37.599Z,6.21
2017-11-28T02:45:18.116Z,6.33
2017-11-28T02:45:58.644Z,6.22
2017-11-28T02:46:39.215Z,6.3
2017-11-28T02:47:19.747Z,6.25
2017-11-28T02:48:00.271Z,6.33
2017-11-28T02:48:40.800Z,6.21
2017-11-28T02:49:21.327Z,6.31
2017-11-28T02:50:01.847Z,6.3
2017-11-28T02:50:42.377Z,6.28
2017-11-28T02:51:22.922Z,6.31
2017-11-28T02:52:03.460Z,6.28
2017-11-28T02:52:43.985Z,6.28
2017-11-28T02:53:24.515Z,6.21
2017-11-28T02:54:05.043Z,6.3
2017-11-28T02:54:45.562Z,6.3
2017-11-28T02:55:26.083Z,6.27
2017-11-28T02:56:06.615Z,6.27
2017-11-28T02:56:47.128Z,6.21
2017-11-28T02:57:27.656Z,6.34
2017-11-28T02:58:08.182Z,6.19
2017-11-28T02:58:48.716Z,6.22
2017-11-28T02:59:29.237Z,6.21
2017-11-28T03:00:09.765Z,6.18
2017-11-28T03:00:50.282Z,6.21
2017-11-28T03:01:30.821Z,6.21
2017-11-28T03:02:11.357Z,6.21
2017-11-28T03:02:51.901Z,6.17
2017-11-28T03:03:32.387Z,6.19
2017-11-28T03:04:12.927Z,6.27
2017-11-28T03:04:53.454Z,6.21
2017-11-28T03:05:33.989Z,6.22
2017-11-28T03:06:14.519Z,6.25
2017-11-28T03:06:55.038Z,6.25
2017-11-28T03:07:35.537Z,6.18
2017-11-28T03:08:16.063Z,6.25
2017-11-28T03:08:56.594Z,6.19
2017-11-28T03:09:37.121Z,6.18
2017-11-28T03:10:17.640Z,6.18
2017-11-28T03:10:58.174Z,6.27
2017-11-28T03:11:38.702Z,6.28
2017-11-28T03:12:19.239Z,6.25
2017-11-28T03:12:59.767Z,6.15
2017-11-28T03:13:40.275Z,6.27
2017-11-28T03:14:20.802Z,6.21
2017-11-28T03:15:01.319Z,6.18
2017-11-28T03:15:41.847Z,6.18
2017-11-28T03:16:22.367Z,6.21
2017-11-28T03:17:02.913Z,6.3
2017-11-28T03:17:43.442Z,6.19
2017-11-28T03:18:23.979Z,6.27
2017-11-28T03:19:04.493Z,6.22
2017-11-28T03:19:45.014Z,6.17
2017-11-28T03:20:25.527Z,6.15
2017-11-28T03:21:06.135Z,6.3
2017-11-28T03:21:46.566Z,6.21
2017-11-28T03:22:27.094Z,6.22
2017-11-28T03:23:07.595Z,6.22
2017-11-28T03:23:48.116Z,6.19
2017-11-28T03:24:28.647Z,6.18
2017-11-28T03:25:09.171Z,6.12
2017-11-28T03:25:49.706Z,6.18
2017-11-28T03:26:30.228Z,6.18
2017-11-28T03:27:10.766Z,6.15
2017-11-28T03:27:51.292Z,6.18
2017-11-28T03:28:31.816Z,6.15
2017-11-28T03:29:12.345Z,6.12
2017-11-28T03:29:52.871Z,6.22
2017-11-28T03:30:33.401Z,6.12
2017-11-28T03:31:13.930Z,6.11
2017-11-28T03:31:54.465Z,6.17
2017-11-28T03:32:34.988Z,6.09
2017-11-28T03:33:15.513Z,6.17
2017-11-28T03:33:56.041Z,6.12
2017-11-28T03:34:36.557Z,6.11
2017-11-28T03:35:17.095Z,6.12
2017-11-28T03:35:57.621Z,6.09
2017-11-28T03:36:38.157Z,6.15
2017-11-28T03:37:18.684Z,6.12
2017-11-28T03:37:59.190Z,6.14
2017-11-28T03:38:39.707Z,6.12
2017-11-28T03:39:20.239Z,6.17
2017-11-28T03:40:00.779Z,6.11
2017-11-28T03:40:41.284Z,6.11
2017-11-28T03:41:21.832Z,6.09
2017-11-28T03:42:02.352Z,6.08
2017-11-28T03:42:42.874Z,6.08
2017-11-28T03:43:23.396Z,6.11
2017-11-28T03:44:03.918Z,6.11
2017-11-28T03:44:44.447Z,6
2017-11-28T03:45:24.984Z,6.09
2017-11-28T03:46:05.501Z,6.12
2017-11-28T03:46:46.028Z,5.99
2017-11-28T03:47:26.546Z,6
2017-11-28T03:48:07.071Z,5.97
2017-11-28T03:48:47.598Z,6.01
2017-11-28T03:49:28.105Z,6
2017-11-28T03:50:08.651Z,6.06
2017-11-28T03:50:49.141Z,6
2017-11-28T03:51:29.692Z,6.04
2017-11-28T03:52:10.209Z,5.96
2017-11-28T03:52:50.732Z,6
2017-11-28T03:53:31.258Z,5.99
2017-11-28T03:54:11.767Z,5.93
2017-11-28T03:54:52.292Z,5.97
2017-11-28T03:55:32.821Z,6.04
2017-11-28T03:56:13.334Z,5.97
2017-11-28T03:56:53.848Z,5.94
2017-11-28T03:57:34.376Z,5.97
2017-11-28T03:58:14.900Z,5.97
2017-11-28T03:58:55.433Z,5.93
2017-11-28T03:59:35.950Z,5.93
2017-11-28T04:00:16.465Z,6
2017-11-28T04:00:56.990Z,5.9
2017-11-28T04:01:37.517Z,5.99
2017-11-28T04:02:18.034Z,5.97
2017-11-28T04:02:58.572Z,5.94
2017-11-28T04:03:39.129Z,5.91
2017-11-28T04:04:19.673Z,5.97
2017-11-28T04:05:00.167Z,5.93
2017-11-28T04:05:40.697Z,6
2017-11-28T04:06:21.219Z,5.93
2017-11-28T04:07:01.735Z,5.91
2017-11-28T04:07:42.263Z,5.94
2017-11-28T04:08:22.783Z,5.93
2017-11-28T04:09:03.311Z,5.97
2017-11-28T04:09:43.839Z,5.85
2017-11-28T04:10:24.369Z,5.93
2017-11-28T04:11:04.936Z,5.93
2017-11-28T04:11:45.468Z,6
2017-11-28T04:12:25.992Z,5.96
2017-11-28T04:13:06.514Z,6
2017-11-28T04:13:47.046Z,5.97
2017-11-28T04:14:27.567Z,5.96
2017-11-28T04:15:08.123Z,5.94
2017-11-28T04:15:48.618Z,5.97
2017-11-28T04:16:29.165Z,5.97
2017-11-28T04:17:09.698Z,5.96
2017-11-28T04:17:50.230Z,5.96
2017-11-28T04:18:30.772Z,5.96
2017-11-28T04:19:11.300Z,5.93
2017-11-28T04:19:51.829Z,5.93
2017-11-28T04:20:32.346Z,5.99
2017-11-28T04:21:12.881Z,5.94
2017-11-28T04:21:53.400Z,5.94
2017-11-28T04:22:33.921Z,5.86
2017-11-28T04:23:14.480Z,5.85
2017-11-28T04:23:54.994Z,5.96
2017-11-28T04:24:35.607Z,5.86
2017-11-28T04:25:16.128Z,5.97
2017-11-28T04:25:56.673Z,5.99
2017-11-28T04:26:37.381Z,5.9
2017-11-28T04:27:17.910Z,5.96
2017-11-28T04:27:58.433Z,5.83
2017-11-28T04:28:38.956Z,5.91
2017-11-28T04:29:19.498Z,5.96
2017-11-28T04:30:00.029Z,5.83
2017-11-28T04:30:40.554Z,5.97
2017-11-28T04:31:21.161Z,5.94
2017-11-28T04:32:01.714Z,5.99
2017-11-28T04:32:42.238Z,5.96
2017-11-28T04:33:22.834Z,5.9
2017-11-28T04:34:03.353Z,5.94
2017-11-28T04:34:43.889Z,5.83
2017-11-28T04:35:24.421Z,5.94
2017-11-28T04:36:04.949Z,5.9
2017-11-28T04:36:45.469Z,5.93
2017-11-28T04:37:25.986Z,5.94
2017-11-28T04:38:06.485Z,5.86
2017-11-28T04:38:47.162Z,5.85
2017-11-28T04:39:27.676Z,5.96
2017-11-28T04:40:08.206Z,5.94
2017-11-28T04:40:48.739Z,5.85
2017-11-28T04:41:29.260Z,5.94
2017-11-28T04:42:09.781Z,5.82
2017-11-28T04:42:50.318Z,5.85
2017-11-28T04:43:30.876Z,5.86
2017-11-28T04:44:11.388Z,5.85
2017-11-28T04:44:51.908Z,5.9
2017-11-28T04:45:32.966Z,5.85
2017-11-28T04:46:13.879Z,5.85
2017-11-28T04:46:55.056Z,5.89
2017-11-28T04:47:35.999Z,5.85
2017-11-28T04:48:18.025Z,5.86
2017-11-28T04:48:58.558Z,5.89
2017-11-28T04:49:39.469Z,5.82
2017-11-28T04:50:21.282Z,5.79
2017-11-28T04:51:03.705Z,5.82
2017-11-28T04:51:45.951Z,5.83
2017-11-28T04:53:40.839Z,5.82
2017-11-28T04:54:21.350Z,5.83
2017-11-28T04:55:01.880Z,5.89
2017-11-28T04:55:42.452Z,5.86
2017-11-28T04:56:22.939Z,5.76
2017-11-28T04:57:03.467Z,5.85
2017-11-28T04:57:44.000Z,5.76
2017-11-28T04:58:24.510Z,5.81
2017-11-28T04:59:05.052Z,5.78
2017-11-28T04:59:45.580Z,5.74
2017-11-28T05:00:26.101Z,5.81
2017-11-28T05:01:06.628Z,5.86
2017-11-28T05:01:47.157Z,5.85
2017-11-28T05:02:27.683Z,5.82
2017-11-28T05:03:08.228Z,5.86
2017-11-28T05:03:48.732Z,5.75
2017-11-28T05:04:29.254Z,5.83
2017-11-28T05:05:09.786Z,5.74
2017-11-28T05:05:50.306Z,5.82
2017-11-28T05:06:30.819Z,5.89
2017-11-28T05:07:11.342Z,5.89
2017-11-28T05:07:51.870Z,5.82
2017-11-28T05:08:32.382Z,5.85
2017-11-28T05:09:12.907Z,5.86
2017-11-28T05:09:53.434Z,5.85
2017-11-28T05:10:33.949Z,5.85
2017-11-28T05:11:14.472Z,5.94
2017-11-28T05:11:55.013Z,5.85
2017-11-28T05:12:35.528Z,5.9
2017-11-28T05:13:16.036Z,5.9
2017-11-28T05:13:56.569Z,5.93
2017-11-28T05:14:37.099Z,5.9
2017-11-28T05:15:17.625Z,5.89
2017-11-28T05:15:58.143Z,5.85
2017-11-28T05:16:38.685Z,5.86
2017-11-28T05:17:19.217Z,5.93
2017-11-28T05:17:59.742Z,5.83
2017-11-28T05:18:40.267Z,5.91
2017-11-28T05:19:20.788Z,5.85
2017-11-28T05:20:01.309Z,5.78
2017-11-28T05:20:41.860Z,5.78
2017-11-28T05:21:22.366Z,5.79
2017-11-28T05:22:02.887Z,5.83
2017-11-28T05:22:43.391Z,5.72
2017-11-28T05:23:23.907Z,5.83
2017-11-28T05:24:04.413Z,5.79
2017-11-28T05:24:44.921Z,5.76
2017-11-28T05:25:25.422Z,5.76
2017-11-28T05:26:05.948Z,5.82
2017-11-28T05:26:46.433Z,5.82
2017-11-28T05:27:26.980Z,5.81
2017-11-28T05:28:07.467Z,5.79
2017-11-28T05:28:47.977Z,5.79
2017-11-28T05:29:28.507Z,5.72
2017-11-28T05:30:09.028Z,5.76
2017-11-28T05:30:49.541Z,5.72
2017-11-28T05:31:30.086Z,5.74
2017-11-28T05:32:10.597Z,5.76
2017-11-28T05:32:51.122Z,5.68
2017-11-28T05:33:31.635Z,5.76
2017-11-28T05:34:12.156Z,5.72
2017-11-28T05:34:52.665Z,5.64
2017-11-28T05:35:33.196Z,5.67
2017-11-28T05:36:13.725Z,5.71
2017-11-28T05:36:54.249Z,5.65
2017-11-28T05:37:34.763Z,5.74
2017-11-28T05:38:15.280Z,5.64
2017-11-28T05:38:55.806Z,5.65
2017-11-28T05:39:36.328Z,5.64
2017-11-28T05:40:16.855Z,5.65
2017-11-28T05:40:57.369Z,5.65
2017-11-28T05:41:37.901Z,5.72
2017-11-28T05:42:18.429Z,5.64
2017-11-28T05:42:58.943Z,5.71
2017-11-28T05:43:39.487Z,5.65
2017-11-28T05:44:20.022Z,5.61
2017-11-28T05:45:00.535Z,5.61
2017-11-28T05:45:41.049Z,5.78
2017-11-28T05:46:21.569Z,5.6
2017-11-28T05:47:02.113Z,5.67
2017-11-28T05:47:42.635Z,5.68
2017-11-28T05:48:23.162Z,5.67
2017-11-28T05:49:03.674Z,5.53
2017-11-28T05:49:44.186Z,5.64
2017-11-28T05:50:24.711Z,5.54
2017-11-28T05:51:05.253Z,5.53
2017-11-28T05:51:45.783Z,5.57
2017-11-28T05:52:26.310Z,5.53
2017-11-28T05:53:06.878Z,5.58
2017-11-28T05:53:47.397Z,5.46
2017-11-28T05:54:27.921Z,5.46
2017-11-28T05:55:08.459Z,5.53
2017-11-28T05:55:48.972Z,5.54
2017-11-28T05:56:29.488Z,5.46
2017-11-28T05:57:09.999Z,5.46
2017-11-28T05:57:50.936Z,5.48
2017-11-28T05:58:31.443Z,5.49
2017-11-28T05:59:11.958Z,5.45
2017-11-28T05:59:52.469Z,5.45
2017-11-28T06:00:32.983Z,5.48
2017-11-28T06:01:13.507Z,5.48
2017-11-28T06:01:54.046Z,5.46
2017-11-28T06:02:34.530Z,5.45
2017-11-28T06:03:15.058Z,5.48
2017-11-28T06:03:55.567Z,5.48
2017-11-28T06:04:36.073Z,5.53
2017-11-28T06:05:16.601Z,5.42
2017-11-28T06:05:57.144Z,5.43
2017-11-28T06:06:37.643Z,5.49
2017-11-28T06:07:18.165Z,5.51
2017-11-28T06:07:58.678Z,5.48
2017-11-28T06:08:39.187Z,5.51
2017-11-28T06:09:19.710Z,5.42
2017-11-28T06:10:00.233Z,5.4
2017-11-28T06:10:40.737Z,5.45
2017-11-28T06:11:21.261Z,5.39
2017-11-28T06:12:01.766Z,5.48
2017-11-28T06:12:42.360Z,5.45
2017-11-28T06:13:22.877Z,5.45
2017-11-28T06:14:03.398Z,5.39
2017-11-28T06:14:43.921Z,5.48
2017-11-28T06:15:24.450Z,5.38
2017-11-28T06:16:04.981Z,5.43
2017-11-28T06:16:45.517Z,5.45
2017-11-28T06:17:26.070Z,5.39
2017-11-28T06:18:06.603Z,5.45
2017-11-28T06:18:47.138Z,5.39
2017-11-28T06:19:27.672Z,5.45
2017-11-28T06:20:08.194Z,5.38
2017-11-28T06:20:48.716Z,5.33
2017-11-28T06:21:29.229Z,5.42
2017-11-28T06:22:09.748Z,5.39
2017-11-28T06:22:50.294Z,5.4
2017-11-28T06:23:30.801Z,5.35
2017-11-28T06:24:11.323Z,5.35
2017-11-28T06:24:51.835Z,5.43
2017-11-28T06:25:32.356Z,5.46
2017-11-28T06:26:12.888Z,5.36
2017-11-28T06:26:53.417Z,5.38
2017-11-28T06:27:33.931Z,5.39
2017-11-28T06:28:14.446Z,5.36
2017-11-28T06:28:54.968Z,5.38
2017-11-28T06:29:35.495Z,5.39
2017-11-28T06:30:15.977Z,5.35
2017-11-28T06:30:56.498Z,5.33
2017-11-28T06:31:37.026Z,5.38
2017-11-28T06:32:17.549Z,5.33
2017-11-28T06:32:58.054Z,5.33
2017-11-28T06:33:38.583Z,5.33
2017-11-28T06:34:19.091Z,5.31
2017-11-28T06:34:59.620Z,5.39
2017-11-28T06:35:40.154Z,5.4
2017-11-28T06:36:20.644Z,5.36
2017-11-28T06:37:01.176Z,5.38
2017-11-28T06:37:41.694Z,5.31
2017-11-28T06:38:22.227Z,5.35
2017-11-28T06:39:02.833Z,5.25
2017-11-28T06:39:43.325Z,5.36
2017-11-28T06:40:23.894Z,5.27
2017-11-28T06:41:04.405Z,5.24
2017-11-28T06:41:44.931Z,5.39
2017-11-28T06:42:25.450Z,5.39
2017-11-28T06:43:05.980Z,5.3
2017-11-28T06:43:46.504Z,5.39
2017-11-28T06:44:27.031Z,5.31
2017-11-28T06:45:07.562Z,5.31
2017-11-28T06:45:48.075Z,5.33
2017-11-28T06:46:28.601Z,5.31
2017-11-28T06:47:09.132Z,5.38
2017-11-28T06:47:49.662Z,5.36
2017-11-28T06:48:32.757Z,5.28
2017-11-28T06:49:13.273Z,5.31
2017-11-28T06:49:53.789Z,5.35
2017-11-28T06:50:34.317Z,5.3
2017-11-28T06:51:14.829Z,5.28
2017-11-28T06:51:55.354Z,5.27
2017-11-28T06:52:35.871Z,5.22
2017-11-28T06:53:16.414Z,5.27
2017-11-28T06:53:56.916Z,5.13
2017-11-28T06:54:37.445Z,5.12
2017-11-28T06:55:17.967Z,5.22
2017-11-28T06:55:58.491Z,5.17
2017-11-28T06:56:39.039Z,5.1
2017-11-28T06:57:19.621Z,5.15
2017-11-28T06:58:00.130Z,5.13
2017-11-28T06:58:40.653Z,5.18
2017-11-28T06:59:21.172Z,5.18
2017-11-28T07:00:01.695Z,5.18
2017-11-28T07:00:42.243Z,5.18
2017-11-28T07:01:22.764Z,5.18
2017-11-28T07:02:03.270Z,5.15
2017-11-28T07:02:43.772Z,5.12
2017-11-28T07:03:24.296Z,5.2
2017-11-28T07:04:04.836Z,5.24
2017-11-28T07:04:45.337Z,5.22
2017-11-28T07:05:25.852Z,5.17
2017-11-28T07:06:06.384Z,5.21
2017-11-28T07:06:46.888Z,5.28
2017-11-28T07:07:27.418Z,5.17
2017-11-28T07:08:07.923Z,5.28
2017-11-28T07:08:48.436Z,5.27
2017-11-28T07:09:28.942Z,5.27
2017-11-28T07:10:09.446Z,5.27
2017-11-28T07:10:49.969Z,5.28
2017-11-28T07:11:30.473Z,5.24
2017-11-28T07:12:11.029Z,5.27
2017-11-28T07:12:51.574Z,5.28
2017-11-28T07:13:32.081Z,5.33
2017-11-28T07:14:12.612Z,5.27
2017-11-28T07:14:53.158Z,5.31
2017-11-28T07:15:33.649Z,5.27
2017-11-28T07:16:14.184Z,5.33
2017-11-28T07:16:54.705Z,5.28
2017-11-28T07:17:35.223Z,5.28
2017-11-28T07:18:15.753Z,5.24
2017-11-28T07:18:56.273Z,5.24
2017-11-28T07:19:36.817Z,5.13
2017-11-28T07:20:17.314Z,5.25
2017-11-28T07:20:57.831Z,5.12
2017-11-28T07:21:38.366Z,5.1
2017-11-28T07:22:18.904Z,5.2
2017-11-28T07:22:59.425Z,5.1
2017-11-28T07:23:39.949Z,5.12
2017-11-28T07:24:20.476Z,5.09
2017-11-28T07:25:00.994Z,5.07
2017-11-28T07:25:41.520Z,5.07
2017-11-28T07:26:22.045Z,5.06
2017-11-28T07:27:02.645Z,4.99
2017-11-28T07:27:43.159Z,4.97
2017-11-28T07:28:23.661Z,4.96
2017-11-28T07:29:04.161Z,5.02
2017-11-28T07:29:44.678Z,4.94
2017-11-28T07:30:25.191Z,4.86
2017-11-28T07:31:05.712Z,4.94
2017-11-28T07:31:46.223Z,4.91
2017-11-28T07:32:26.737Z,4.96
2017-11-28T07:33:07.261Z,4.89
2017-11-28T07:33:47.754Z,4.85
2017-11-28T07:34:28.273Z,4.89
2017-11-28T07:35:08.791Z,4.8
2017-11-28T07:35:49.320Z,4.78
2017-11-28T07:36:29.826Z,4.75
2017-11-28T07:37:10.332Z,4.77
2017-11-28T07:37:50.846Z,4.82
2017-11-28T07:38:31.349Z,4.8
2017-11-28T07:39:11.844Z,4.75
2017-11-28T07:39:52.357Z,4.69
2017-11-28T07:40:32.870Z,4.69
2017-11-28T07:41:13.402Z,4.67
2017-11-28T07:41:53.922Z,4.72
2017-11-28T07:42:34.419Z,4.66
2017-11-28T07:43:14.921Z,4.65
2017-11-28T07:43:55.444Z,4.66
2017-11-28T07:44:35.951Z,4.58
2017-11-28T07:45:16.469Z,4.62
2017-11-28T07:45:56.977Z,4.67
2017-11-28T07:46:37.489Z,4.52
2017-11-28T07:47:18.032Z,4.66
2017-11-28T07:47:58.561Z,4.66
2017-11-28T07:48:39.091Z,4.65
2017-11-28T07:49:19.611Z,4.65
2017-11-28T07:50:00.125Z,4.69
2017-11-28T07:50:40.647Z,4.7
2017-11-28T07:51:21.163Z,4.59
2017-11-28T07:52:01.672Z,4.65
2017-11-28T07:52:42.165Z,4.58
2017-11-28T07:53:22.696Z,4.55
2017-11-28T07:54:03.225Z,4.55
2017-11-28T07:54:43.750Z,4.47
2017-11-28T07:55:24.254Z,4.55
2017-11-28T07:56:04.784Z,4.48
2017-11-28T07:56:45.280Z,4.48
2017-11-28T07:57:25.797Z,4.51
2017-11-28T07:58:06.333Z,4.51
2017-11-28T07:58:46.862Z,4.62
2017-11-28T07:59:27.392Z,4.51
2017-11-28T08:00:07.907Z,4.5
2017-11-28T08:00:48.426Z,4.54
2017-11-28T08:01:28.961Z,4.51
2017-11-28T08:02:09.472Z,4.62
2017-11-28T08:02:49.984Z,4.54
2017-11-28T08:03:30.508Z,4.54
2017-11-28T08:04:11.026Z,4.6
2017-11-28T08:04:51.541Z,4.6
2017-11-28T08:05:32.066Z,4.51
2017-11-28T08:06:12.563Z,4.52
2017-11-28T08:06:53.089Z,4.54
2017-11-28T08:07:33.608Z,4.55
2017-11-28T08:08:14.121Z,4.66
2017-11-28T08:08:54.628Z,4.63
2017-11-28T08:09:35.160Z,4.6
2017-11-28T08:10:15.694Z,4.63
2017-11-28T08:10:56.209Z,4.6
2017-11-28T08:11:36.713Z,4.67
2017-11-28T08:12:17.238Z,4.63
2017-11-28T08:12:57.767Z,4.72
2017-11-28T08:13:38.298Z,4.62
2017-11-28T08:14:18.820Z,4.69
2017-11-28T08:14:59.337Z,4.67
2017-11-28T08:15:39.852Z,4.6
2017-11-28T08:16:20.385Z,4.69
2017-11-28T08:17:00.918Z,4.7
2017-11-28T08:17:41.432Z,4.69
2017-11-28T08:18:21.941Z,4.72
2017-11-28T08:19:02.459Z,4.66
2017-11-28T08:19:42.962Z,4.67
2017-11-28T08:20:23.496Z,4.8
2017-11-28T08:21:04.030Z,4.7
2017-11-28T08:21:44.565Z,4.77
2017-11-28T08:22:25.088Z,4.77
2017-11-28T08:23:05.606Z,4.8
2017-11-28T08:23:46.133Z,4.75
2017-11-28T08:24:26.645Z,4.84
2017-11-28T08:25:07.157Z,4.77
2017-11-28T08:25:47.688Z,4.77
2017-11-28T08:26:28.197Z,4.85
2017-11-28T08:27:08.712Z,4.84
2017-11-28T08:27:49.242Z,4.73
2017-11-28T08:28:29.749Z,4.75
2017-11-28T08:29:10.264Z,4.86
2017-11-28T08:29:50.779Z,4.78
2017-11-28T08:30:31.324Z,4.82
2017-11-28T08:31:11.929Z,4.88
2017-11-28T08:31:52.450Z,4.85
2017-11-28T08:32:32.956Z,4.85
2017-11-28T08:33:13.468Z,4.86
2017-11-28T08:33:53.982Z,4.88
2017-11-28T08:34:34.502Z,4.84
2017-11-28T08:35:15.034Z,4.88
2017-11-28T08:35:55.557Z,4.88
2017-11-28T08:36:36.084Z,4.91
2017-11-28T08:37:16.610Z,4.88
2017-11-28T08:37:57.122Z,4.91
2017-11-28T08:38:37.660Z,4.86
2017-11-28T08:39:18.197Z,4.96
2017-11-28T08:39:58.725Z,4.92
2017-11-28T08:40:39.262Z,4.91
2017-11-28T08:41:19.771Z,4.99
2017-11-28T08:42:00.286Z,4.96
2017-11-28T08:42:40.808Z,5
2017-11-28T08:43:21.321Z,4.91
2017-11-28T08:44:01.847Z,4.99
2017-11-28T08:44:42.377Z,5.04
2017-11-28T08:45:22.879Z,5.1
2017-11-28T08:46:03.406Z,5.07
2017-11-28T08:46:43.927Z,5.06
2017-11-28T08:47:24.451Z,5.07
2017-11-28T08:48:04.970Z,5.1
2017-11-28T08:48:45.477Z,5.12
2017-11-28T08:49:25.997Z,5.24
2017-11-28T08:50:06.536Z,5.1
2017-11-28T08:50:47.068Z,5.13
2017-11-28T08:51:27.554Z,5.12
2017-11-28T08:52:08.052Z,5.12
2017-11-28T08:52:48.569Z,5.21
2017-11-28T08:53:29.080Z,5.28
2017-11-28T08:54:09.598Z,5.28
2017-11-28T08:54:50.112Z,5.35
2017-11-28T08:55:30.625Z,5.4
2017-11-28T08:56:11.148Z,5.4
2017-11-28T08:56:51.669Z,5.45
2017-11-28T08:57:32.183Z,5.45
2017-11-28T08:58:12.716Z,5.49
2017-11-28T08:58:53.284Z,5.54
2017-11-28T08:59:33.826Z,5.48
2017-11-28T09:00:14.360Z,5.61
2017-11-28T09:00:54.882Z,5.67
2017-11-28T09:01:35.403Z,5.58
2017-11-28T09:02:15.941Z,5.68
2017-11-28T09:02:56.446Z,5.75